sensor_id;sensor_type;location;lat;lon;timestamp;P1;durP1;ratioP1;P2;durP2;ratioP2
23222;SDS011;11780;13.904;100.620;2023-07-24T00:01:59;8.75;;;7.85;;
23222;SDS011;11780;13.904;100.620;2023-07-24T00:04:32;13.65;;;8.30;;
23222;SDS011;11780;13.904;100.620;2023-07-24T00:07:03;11.73;;;8.85;;
23222;SDS011;11780;13.904;100.620;2023-07-24T00:09:33;10.13;;;8.00;;
23222;SDS011;11780;13.904;100.620;2023-07-24T00:12:04;10.98;;;8.88;;
23222;SDS011;11780;13.904;100.620;2023-07-24T00:14:34;10.50;;;8.68;;
23222;SDS011;11780;13.904;100.620;2023-07-24T00:17:05;11.55;;;9.38;;
23222;SDS011;11780;13.904;100.620;2023-07-24T00:19:35;11.80;;;8.10;;
23222;SDS011;11780;13.904;100.620;2023-07-24T00:22:06;13.52;;;7.68;;
23222;SDS011;11780;13.904;100.620;2023-07-24T00:24:36;9.38;;;7.68;;
23222;SDS011;11780;13.904;100.620;2023-07-24T00:27:06;11.45;;;8.65;;
23222;SDS011;11780;13.904;100.620;2023-07-24T00:29:38;11.27;;;8.18;;
23222;SDS011;11780;13.904;100.620;2023-07-24T00:32:08;9.45;;;7.95;;
23222;SDS011;11780;13.904;100.620;2023-07-24T00:34:39;11.27;;;7.97;;
23222;SDS011;11780;13.904;100.620;2023-07-24T00:37:09;9.50;;;7.72;;
23222;SDS011;11780;13.904;100.620;2023-07-24T00:39:39;9.98;;;7.40;;
23222;SDS011;11780;13.904;100.620;2023-07-24T00:42:10;10.98;;;7.43;;
23222;SDS011;11780;13.904;100.620;2023-07-24T00:44:40;11.65;;;7.30;;
23222;SDS011;11780;13.904;100.620;2023-07-24T00:47:11;8.40;;;6.50;;
23222;SDS011;11780;13.904;100.620;2023-07-24T00:49:41;9.30;;;7.28;;
23222;SDS011;11780;13.904;100.620;2023-07-24T00:52:11;33.33;;;17.10;;
23222;SDS011;11780;13.904;100.620;2023-07-24T00:54:44;12.40;;;7.38;;
23222;SDS011;11780;13.904;100.620;2023-07-24T00:57:16;10.95;;;6.93;;
23222;SDS011;11780;13.904;100.620;2023-07-24T00:59:46;13.70;;;8.05;;
23222;SDS011;11780;13.904;100.620;2023-07-24T01:02:17;19.10;;;9.07;;
23222;SDS011;11780;13.904;100.620;2023-07-24T01:04:48;14.68;;;7.20;;
23222;SDS011;11780;13.904;100.620;2023-07-24T01:07:19;10.48;;;7.38;;
23222;SDS011;11780;13.904;100.620;2023-07-24T01:09:50;13.40;;;7.47;;
23222;SDS011;11780;13.904;100.620;2023-07-24T01:15:07;10.05;;;7.20;;
23222;SDS011;11780;13.904;100.620;2023-07-24T01:17:46;9.63;;;6.30;;
23222;SDS011;11780;13.904;100.620;2023-07-24T01:20:19;12.18;;;6.93;;
23222;SDS011;11780;13.904;100.620;2023-07-24T01:26:05;9.60;;;5.20;;
23222;SDS011;11780;13.904;100.620;2023-07-24T01:31:06;7.30;;;4.68;;
23222;SDS011;11780;13.904;100.620;2023-07-24T01:33:36;7.93;;;5.20;;
23222;SDS011;11780;13.904;100.620;2023-07-24T01:36:08;6.45;;;4.45;;
23222;SDS011;11780;13.904;100.620;2023-07-24T01:38:40;6.68;;;4.53;;
23222;SDS011;11780;13.904;100.620;2023-07-24T01:43:41;7.35;;;4.50;;
23222;SDS011;11780;13.904;100.620;2023-07-24T01:48:43;8.73;;;4.55;;
23222;SDS011;11780;13.904;100.620;2023-07-24T01:51:13;5.70;;;4.25;;
23222;SDS011;11780;13.904;100.620;2023-07-24T01:53:43;4.72;;;3.33;;
23222;SDS011;11780;13.904;100.620;2023-07-24T01:56:14;6.65;;;3.90;;
23222;SDS011;11780;13.904;100.620;2023-07-24T01:58:44;5.50;;;3.90;;
23222;SDS011;11780;13.904;100.620;2023-07-24T02:01:14;4.30;;;3.87;;
23222;SDS011;11780;13.904;100.620;2023-07-24T02:03:45;4.90;;;3.57;;
23222;SDS011;11780;13.904;100.620;2023-07-24T02:06:15;7.30;;;3.77;;
23222;SDS011;11780;13.904;100.620;2023-07-24T02:08:46;4.73;;;3.33;;
23222;SDS011;11780;13.904;100.620;2023-07-24T02:11:18;5.50;;;3.67;;
23222;SDS011;11780;13.904;100.620;2023-07-24T02:13:48;5.50;;;3.90;;
23222;SDS011;11780;13.904;100.620;2023-07-24T02:16:19;8.05;;;3.92;;
23222;SDS011;11780;13.904;100.620;2023-07-24T02:18:49;8.85;;;3.63;;
23222;SDS011;11780;13.904;100.620;2023-07-24T02:21:19;8.43;;;3.85;;
23222;SDS011;11780;13.904;100.620;2023-07-24T02:23:50;5.18;;;3.50;;
23222;SDS011;11780;13.904;100.620;2023-07-24T02:26:20;6.43;;;3.75;;
23222;SDS011;11780;13.904;100.620;2023-07-24T02:28:50;7.93;;;3.85;;
23222;SDS011;11780;13.904;100.620;2023-07-24T02:31:21;7.37;;;4.37;;
23222;SDS011;11780;13.904;100.620;2023-07-24T02:33:51;10.63;;;4.38;;
23222;SDS011;11780;13.904;100.620;2023-07-24T02:36:22;9.70;;;4.07;;
23222;SDS011;11780;13.904;100.620;2023-07-24T02:38:52;7.25;;;4.25;;
23222;SDS011;11780;13.904;100.620;2023-07-24T02:41:23;6.03;;;3.70;;
23222;SDS011;11780;13.904;100.620;2023-07-24T02:43:53;7.38;;;4.07;;
23222;SDS011;11780;13.904;100.620;2023-07-24T02:46:23;5.97;;;3.90;;
23222;SDS011;11780;13.904;100.620;2023-07-24T02:48:54;3.90;;;3.30;;
23222;SDS011;11780;13.904;100.620;2023-07-24T02:51:25;5.00;;;3.35;;
23222;SDS011;11780;13.904;100.620;2023-07-24T02:53:55;6.90;;;3.47;;
23222;SDS011;11780;13.904;100.620;2023-07-24T02:56:25;10.48;;;4.05;;
23222;SDS011;11780;13.904;100.620;2023-07-24T02:58:56;6.80;;;3.30;;
23222;SDS011;11780;13.904;100.620;2023-07-24T03:01:26;4.38;;;3.00;;
23222;SDS011;11780;13.904;100.620;2023-07-24T03:03:57;4.22;;;2.90;;
23222;SDS011;11780;13.904;100.620;2023-07-24T03:06:27;5.18;;;3.20;;
23222;SDS011;11780;13.904;100.620;2023-07-24T03:08:58;5.75;;;3.40;;
23222;SDS011;11780;13.904;100.620;2023-07-24T03:11:28;6.35;;;3.00;;
23222;SDS011;11780;13.904;100.620;2023-07-24T03:13:59;6.40;;;3.70;;
23222;SDS011;11780;13.904;100.620;2023-07-24T03:16:30;8.63;;;4.10;;
23222;SDS011;11780;13.904;100.620;2023-07-24T03:19:00;6.00;;;3.37;;
23222;SDS011;11780;13.904;100.620;2023-07-24T03:21:30;4.88;;;3.38;;
23222;SDS011;11780;13.904;100.620;2023-07-24T03:24:00;6.82;;;3.83;;
23222;SDS011;11780;13.904;100.620;2023-07-24T03:26:31;6.28;;;3.53;;
23222;SDS011;11780;13.904;100.620;2023-07-24T03:29:01;5.68;;;3.38;;
23222;SDS011;11780;13.904;100.620;2023-07-24T03:31:31;7.55;;;3.40;;
23222;SDS011;11780;13.904;100.620;2023-07-24T03:34:02;4.45;;;3.15;;
23222;SDS011;11780;13.904;100.620;2023-07-24T03:36:32;7.43;;;3.40;;
23222;SDS011;11780;13.904;100.620;2023-07-24T03:39:03;7.00;;;3.90;;
23222;SDS011;11780;13.904;100.620;2023-07-24T03:41:33;5.25;;;3.03;;
23222;SDS011;11780;13.904;100.620;2023-07-24T03:44:04;3.90;;;3.30;;
23222;SDS011;11780;13.904;100.620;2023-07-24T03:46:34;5.93;;;3.30;;
23222;SDS011;11780;13.904;100.620;2023-07-24T03:49:05;5.40;;;3.27;;
23222;SDS011;11780;13.904;100.620;2023-07-24T03:51:35;7.00;;;3.43;;
23222;SDS011;11780;13.904;100.620;2023-07-24T03:54:06;5.40;;;3.22;;
23222;SDS011;11780;13.904;100.620;2023-07-24T03:56:36;5.65;;;3.38;;
23222;SDS011;11780;13.904;100.620;2023-07-24T03:59:06;8.25;;;3.47;;
23222;SDS011;11780;13.904;100.620;2023-07-24T04:01:37;8.13;;;3.60;;
23222;SDS011;11780;13.904;100.620;2023-07-24T04:04:07;7.28;;;3.35;;
23222;SDS011;11780;13.904;100.620;2023-07-24T04:06:38;7.23;;;3.30;;
23222;SDS011;11780;13.904;100.620;2023-07-24T04:09:08;8.63;;;3.58;;
23222;SDS011;11780;13.904;100.620;2023-07-24T04:11:40;8.80;;;2.78;;
23222;SDS011;11780;13.904;100.620;2023-07-24T04:14:12;5.65;;;3.08;;
23222;SDS011;11780;13.904;100.620;2023-07-24T04:16:43;7.95;;;3.65;;
23222;SDS011;11780;13.904;100.620;2023-07-24T04:19:14;4.13;;;2.90;;
23222;SDS011;11780;13.904;100.620;2023-07-24T04:21:44;5.03;;;3.03;;
23222;SDS011;11780;13.904;100.620;2023-07-24T04:24:15;7.13;;;3.55;;
23222;SDS011;11780;13.904;100.620;2023-07-24T04:26:45;9.02;;;4.05;;
23222;SDS011;11780;13.904;100.620;2023-07-24T04:29:15;7.07;;;3.30;;
23222;SDS011;11780;13.904;100.620;2023-07-24T04:31:46;11.57;;;4.13;;
23222;SDS011;11780;13.904;100.620;2023-07-24T04:34:16;11.40;;;4.55;;
23222;SDS011;11780;13.904;100.620;2023-07-24T04:36:46;11.07;;;4.00;;
23222;SDS011;11780;13.904;100.620;2023-07-24T04:39:17;16.17;;;3.87;;
23222;SDS011;11780;13.904;100.620;2023-07-24T04:41:47;10.80;;;4.03;;
23222;SDS011;11780;13.904;100.620;2023-07-24T04:44:17;8.98;;;3.80;;
23222;SDS011;11780;13.904;100.620;2023-07-24T04:46:48;8.23;;;3.35;;
23222;SDS011;11780;13.904;100.620;2023-07-24T04:49:19;7.80;;;3.20;;
23222;SDS011;11780;13.904;100.620;2023-07-24T04:51:50;9.13;;;3.63;;
23222;SDS011;11780;13.904;100.620;2023-07-24T04:54:21;10.23;;;3.50;;
23222;SDS011;11780;13.904;100.620;2023-07-24T04:56:51;8.55;;;3.70;;
23222;SDS011;11780;13.904;100.620;2023-07-24T04:59:21;11.45;;;3.85;;
23222;SDS011;11780;13.904;100.620;2023-07-24T05:01:53;7.95;;;3.72;;
23222;SDS011;11780;13.904;100.620;2023-07-24T05:04:23;7.90;;;3.37;;
23222;SDS011;11780;13.904;100.620;2023-07-24T05:06:54;7.90;;;3.43;;
23222;SDS011;11780;13.904;100.620;2023-07-24T05:09:24;9.80;;;3.25;;
23222;SDS011;11780;13.904;100.620;2023-07-24T05:11:55;7.57;;;3.77;;
23222;SDS011;11780;13.904;100.620;2023-07-24T05:14:25;7.28;;;3.60;;
23222;SDS011;11780;13.904;100.620;2023-07-24T05:16:55;9.50;;;3.55;;
23222;SDS011;11780;13.904;100.620;2023-07-24T05:19:25;5.82;;;2.80;;
23222;SDS011;11780;13.904;100.620;2023-07-24T05:21:56;9.00;;;3.80;;
23222;SDS011;11780;13.904;100.620;2023-07-24T05:24:26;7.05;;;3.35;;
23222;SDS011;11780;13.904;100.620;2023-07-24T05:26:56;8.80;;;3.28;;
23222;SDS011;11780;13.904;100.620;2023-07-24T05:29:27;5.88;;;3.38;;
23222;SDS011;11780;13.904;100.620;2023-07-24T05:31:57;11.52;;;3.85;;
23222;SDS011;11780;13.904;100.620;2023-07-24T05:34:28;9.15;;;3.58;;
23222;SDS011;11780;13.904;100.620;2023-07-24T05:36:58;8.75;;;3.35;;
23222;SDS011;11780;13.904;100.620;2023-07-24T05:39:29;9.23;;;3.55;;
23222;SDS011;11780;13.904;100.620;2023-07-24T05:42:00;9.82;;;3.70;;
23222;SDS011;11780;13.904;100.620;2023-07-24T05:44:30;8.27;;;3.75;;
23222;SDS011;11780;13.904;100.620;2023-07-24T05:47:00;8.65;;;3.60;;
23222;SDS011;11780;13.904;100.620;2023-07-24T05:49:31;6.50;;;3.77;;
23222;SDS011;11780;13.904;100.620;2023-07-24T05:52:01;9.27;;;3.75;;
23222;SDS011;11780;13.904;100.620;2023-07-24T05:54:31;9.17;;;3.77;;
23222;SDS011;11780;13.904;100.620;2023-07-24T05:57:02;11.60;;;3.92;;
23222;SDS011;11780;13.904;100.620;2023-07-24T05:59:33;9.95;;;3.63;;
23222;SDS011;11780;13.904;100.620;2023-07-24T06:02:03;12.10;;;3.80;;
23222;SDS011;11780;13.904;100.620;2023-07-24T06:04:34;7.43;;;3.63;;
23222;SDS011;11780;13.904;100.620;2023-07-24T06:07:05;4.22;;;3.05;;
23222;SDS011;11780;13.904;100.620;2023-07-24T06:09:36;6.28;;;3.08;;
23222;SDS011;11780;13.904;100.620;2023-07-24T06:12:06;12.07;;;4.30;;
23222;SDS011;11780;13.904;100.620;2023-07-24T06:14:37;7.32;;;4.13;;
23222;SDS011;11780;13.904;100.620;2023-07-24T06:17:08;7.03;;;3.63;;
23222;SDS011;11780;13.904;100.620;2023-07-24T06:19:38;8.90;;;3.50;;
23222;SDS011;11780;13.904;100.620;2023-07-24T06:22:09;11.13;;;3.85;;
23222;SDS011;11780;13.904;100.620;2023-07-24T06:24:39;5.80;;;3.15;;
23222;SDS011;11780;13.904;100.620;2023-07-24T06:27:09;9.77;;;3.67;;
23222;SDS011;11780;13.904;100.620;2023-07-24T06:29:40;7.88;;;3.63;;
23222;SDS011;11780;13.904;100.620;2023-07-24T06:32:10;10.43;;;4.07;;
23222;SDS011;11780;13.904;100.620;2023-07-24T06:34:40;6.40;;;3.75;;
23222;SDS011;11780;13.904;100.620;2023-07-24T06:37:11;6.75;;;3.40;;
23222;SDS011;11780;13.904;100.620;2023-07-24T06:39:48;9.40;;;4.32;;
23222;SDS011;11780;13.904;100.620;2023-07-24T06:42:19;8.13;;;3.22;;
23222;SDS011;11780;13.904;100.620;2023-07-24T06:44:49;13.63;;;3.40;;
23222;SDS011;11780;13.904;100.620;2023-07-24T06:47:19;8.60;;;3.80;;
23222;SDS011;11780;13.904;100.620;2023-07-24T06:49:50;5.63;;;3.05;;
23222;SDS011;11780;13.904;100.620;2023-07-24T06:52:21;6.43;;;3.60;;
23222;SDS011;11780;13.904;100.620;2023-07-24T06:54:51;10.25;;;3.58;;
23222;SDS011;11780;13.904;100.620;2023-07-24T06:57:21;7.95;;;3.42;;
23222;SDS011;11780;13.904;100.620;2023-07-24T06:59:51;8.52;;;3.90;;
23222;SDS011;11780;13.904;100.620;2023-07-24T07:02:22;6.47;;;3.30;;
23222;SDS011;11780;13.904;100.620;2023-07-24T07:04:52;8.07;;;3.43;;
23222;SDS011;11780;13.904;100.620;2023-07-24T07:07:22;8.07;;;4.05;;
23222;SDS011;11780;13.904;100.620;2023-07-24T07:09:53;10.32;;;3.83;;
23222;SDS011;11780;13.904;100.620;2023-07-24T07:12:23;8.33;;;4.17;;
23222;SDS011;11780;13.904;100.620;2023-07-24T07:14:54;7.82;;;3.83;;
23222;SDS011;11780;13.904;100.620;2023-07-24T07:17:24;9.07;;;3.45;;
23222;SDS011;11780;13.904;100.620;2023-07-24T07:19:54;9.75;;;3.67;;
23222;SDS011;11780;13.904;100.620;2023-07-24T07:22:26;8.10;;;3.95;;
23222;SDS011;11780;13.904;100.620;2023-07-24T07:24:57;12.27;;;4.07;;
23222;SDS011;11780;13.904;100.620;2023-07-24T07:27:27;8.85;;;3.40;;
23222;SDS011;11780;13.904;100.620;2023-07-24T07:29:57;7.35;;;3.67;;
23222;SDS011;11780;13.904;100.620;2023-07-24T07:32:27;11.75;;;3.33;;
23222;SDS011;11780;13.904;100.620;2023-07-24T07:34:58;7.67;;;4.00;;
23222;SDS011;11780;13.904;100.620;2023-07-24T07:37:28;6.88;;;3.45;;
23222;SDS011;11780;13.904;100.620;2023-07-24T07:39:59;10.02;;;3.38;;
23222;SDS011;11780;13.904;100.620;2023-07-24T07:42:29;10.20;;;3.67;;
23222;SDS011;11780;13.904;100.620;2023-07-24T07:44:59;7.32;;;3.53;;
23222;SDS011;11780;13.904;100.620;2023-07-24T07:47:30;6.28;;;3.03;;
23222;SDS011;11780;13.904;100.620;2023-07-24T07:50:00;4.43;;;3.17;;
23222;SDS011;11780;13.904;100.620;2023-07-24T07:52:30;8.45;;;3.38;;
23222;SDS011;11780;13.904;100.620;2023-07-24T07:55:01;8.55;;;4.10;;
23222;SDS011;11780;13.904;100.620;2023-07-24T07:57:34;6.32;;;3.40;;
23222;SDS011;11780;13.904;100.620;2023-07-24T08:00:05;12.43;;;3.67;;
23222;SDS011;11780;13.904;100.620;2023-07-24T08:02:37;9.68;;;3.67;;
23222;SDS011;11780;13.904;100.620;2023-07-24T08:05:10;7.55;;;3.47;;
23222;SDS011;11780;13.904;100.620;2023-07-24T08:07:47;6.18;;;3.53;;
23222;SDS011;11780;13.904;100.620;2023-07-24T08:10:17;4.57;;;3.33;;
23222;SDS011;11780;13.904;100.620;2023-07-24T08:12:47;7.03;;;3.10;;
23222;SDS011;11780;13.904;100.620;2023-07-24T08:15:18;4.90;;;3.05;;
23222;SDS011;11780;13.904;100.620;2023-07-24T08:17:48;6.00;;;3.25;;
23222;SDS011;11780;13.904;100.620;2023-07-24T08:20:18;6.22;;;2.85;;
23222;SDS011;11780;13.904;100.620;2023-07-24T08:22:49;8.17;;;3.73;;
23222;SDS011;11780;13.904;100.620;2023-07-24T08:25:19;5.57;;;2.97;;
23222;SDS011;11780;13.904;100.620;2023-07-24T08:27:49;5.07;;;3.38;;
23222;SDS011;11780;13.904;100.620;2023-07-24T08:30:32;6.97;;;3.40;;
23222;SDS011;11780;13.904;100.620;2023-07-24T08:33:04;5.70;;;3.17;;
23222;SDS011;11780;13.904;100.620;2023-07-24T08:35:34;6.90;;;3.13;;
23222;SDS011;11780;13.904;100.620;2023-07-24T08:38:04;5.82;;;3.00;;
23222;SDS011;11780;13.904;100.620;2023-07-24T08:40:35;9.52;;;3.03;;
23222;SDS011;11780;13.904;100.620;2023-07-24T08:43:05;6.57;;;3.47;;
23222;SDS011;11780;13.904;100.620;2023-07-24T08:45:35;7.47;;;3.53;;
23222;SDS011;11780;13.904;100.620;2023-07-24T08:48:07;7.55;;;3.50;;
23222;SDS011;11780;13.904;100.620;2023-07-24T08:50:39;8.77;;;3.25;;
23222;SDS011;11780;13.904;100.620;2023-07-24T08:53:09;6.65;;;3.33;;
23222;SDS011;11780;13.904;100.620;2023-07-24T08:55:40;4.07;;;2.90;;
23222;SDS011;11780;13.904;100.620;2023-07-24T08:58:11;6.70;;;3.55;;
23222;SDS011;11780;13.904;100.620;2023-07-24T09:00:41;7.88;;;3.97;;
23222;SDS011;11780;13.904;100.620;2023-07-24T09:03:12;16.93;;;5.87;;
23222;SDS011;11780;13.904;100.620;2023-07-24T09:05:43;11.40;;;6.23;;
23222;SDS011;11780;13.904;100.620;2023-07-24T09:08:13;17.70;;;8.15;;
23222;SDS011;11780;13.904;100.620;2023-07-24T09:10:43;21.85;;;8.60;;
23222;SDS011;11780;13.904;100.620;2023-07-24T09:13:14;21.47;;;9.07;;
23222;SDS011;11780;13.904;100.620;2023-07-24T09:15:44;23.60;;;9.63;;
23222;SDS011;11780;13.904;100.620;2023-07-24T09:20:47;15.32;;;8.00;;
23222;SDS011;11780;13.904;100.620;2023-07-24T09:23:26;19.23;;;8.85;;
23222;SDS011;11780;13.904;100.620;2023-07-24T09:25:57;14.75;;;7.72;;
23222;SDS011;11780;13.904;100.620;2023-07-24T09:28:27;15.53;;;7.00;;
23222;SDS011;11780;13.904;100.620;2023-07-24T09:30:58;15.98;;;6.75;;
23222;SDS011;11780;13.904;100.620;2023-07-24T09:36:06;13.98;;;6.63;;
23222;SDS011;11780;13.904;100.620;2023-07-24T09:38:38;8.27;;;5.20;;
23222;SDS011;11780;13.904;100.620;2023-07-24T09:41:09;11.70;;;6.35;;
23222;SDS011;11780;13.904;100.620;2023-07-24T09:46:11;12.18;;;6.57;;
23222;SDS011;11780;13.904;100.620;2023-07-24T09:48:41;11.33;;;6.40;;
23222;SDS011;11780;13.904;100.620;2023-07-24T09:51:32;12.32;;;6.07;;
23222;SDS011;11780;13.904;100.620;2023-07-24T09:56:47;11.77;;;5.05;;
23222;SDS011;11780;13.904;100.620;2023-07-24T09:59:36;13.18;;;5.50;;
23222;SDS011;11780;13.904;100.620;2023-07-24T10:02:09;10.68;;;5.10;;
23222;SDS011;11780;13.904;100.620;2023-07-24T10:04:41;6.65;;;4.22;;
23222;SDS011;11780;13.904;100.620;2023-07-24T10:07:12;10.18;;;4.20;;
23222;SDS011;11780;13.904;100.620;2023-07-24T10:09:44;8.25;;;4.40;;
23222;SDS011;11780;13.904;100.620;2023-07-24T10:12:14;9.07;;;4.97;;
23222;SDS011;11780;13.904;100.620;2023-07-24T10:14:47;5.70;;;4.15;;
23222;SDS011;11780;13.904;100.620;2023-07-24T10:20:09;11.32;;;5.03;;
23222;SDS011;11780;13.904;100.620;2023-07-24T10:22:40;6.55;;;4.10;;
23222;SDS011;11780;13.904;100.620;2023-07-24T10:25:12;7.88;;;4.55;;
23222;SDS011;11780;13.904;100.620;2023-07-24T10:27:42;8.13;;;3.80;;
23222;SDS011;11780;13.904;100.620;2023-07-24T10:30:15;8.73;;;4.00;;
23222;SDS011;11780;13.904;100.620;2023-07-24T10:33:05;6.72;;;3.97;;
23222;SDS011;11780;13.904;100.620;2023-07-24T10:36:06;9.07;;;4.10;;
23222;SDS011;11780;13.904;100.620;2023-07-24T10:38:43;10.67;;;4.50;;
23222;SDS011;11780;13.904;100.620;2023-07-24T10:41:13;8.03;;;4.90;;
23222;SDS011;11780;13.904;100.620;2023-07-24T10:43:45;8.97;;;5.37;;
23222;SDS011;11780;13.904;100.620;2023-07-24T10:46:20;7.82;;;4.15;;
23222;SDS011;11780;13.904;100.620;2023-07-24T10:51:21;6.50;;;4.05;;
23222;SDS011;11780;13.904;100.620;2023-07-24T10:53:51;8.30;;;4.78;;
23222;SDS011;11780;13.904;100.620;2023-07-24T10:56:22;6.38;;;4.18;;
23222;SDS011;11780;13.904;100.620;2023-07-24T10:58:53;8.57;;;4.33;;
23222;SDS011;11780;13.904;100.620;2023-07-24T11:01:23;10.97;;;5.10;;
23222;SDS011;11780;13.904;100.620;2023-07-24T11:03:54;7.83;;;4.10;;
23222;SDS011;11780;13.904;100.620;2023-07-24T11:06:24;7.55;;;4.57;;
23222;SDS011;11780;13.904;100.620;2023-07-24T11:08:55;9.37;;;4.73;;
23222;SDS011;11780;13.904;100.620;2023-07-24T11:11:30;7.05;;;4.43;;
23222;SDS011;11780;13.904;100.620;2023-07-24T11:14:03;7.45;;;4.70;;
23222;SDS011;11780;13.904;100.620;2023-07-24T11:16:33;7.60;;;4.45;;
23222;SDS011;11780;13.904;100.620;2023-07-24T11:19:04;8.27;;;4.60;;
23222;SDS011;11780;13.904;100.620;2023-07-24T11:21:35;8.00;;;4.10;;
23222;SDS011;11780;13.904;100.620;2023-07-24T11:24:06;5.68;;;3.70;;
23222;SDS011;11780;13.904;100.620;2023-07-24T11:26:38;7.43;;;4.00;;
23222;SDS011;11780;13.904;100.620;2023-07-24T11:29:12;8.15;;;4.50;;
23222;SDS011;11780;13.904;100.620;2023-07-24T11:31:43;7.90;;;4.05;;
23222;SDS011;11780;13.904;100.620;2023-07-24T11:34:13;7.23;;;4.20;;
23222;SDS011;11780;13.904;100.620;2023-07-24T11:36:44;5.90;;;3.70;;
23222;SDS011;11780;13.904;100.620;2023-07-24T11:39:21;8.02;;;3.88;;
23222;SDS011;11780;13.904;100.620;2023-07-24T11:41:52;6.40;;;4.45;;
23222;SDS011;11780;13.904;100.620;2023-07-24T11:44:26;10.30;;;5.97;;
23222;SDS011;11780;13.904;100.620;2023-07-24T11:47:01;13.25;;;7.50;;
23222;SDS011;11780;13.904;100.620;2023-07-24T11:49:35;11.63;;;7.93;;
23222;SDS011;11780;13.904;100.620;2023-07-24T11:52:06;9.52;;;5.60;;
23222;SDS011;11780;13.904;100.620;2023-07-24T11:54:37;8.95;;;5.43;;
23222;SDS011;11780;13.904;100.620;2023-07-24T11:57:16;6.97;;;4.70;;
23222;SDS011;11780;13.904;100.620;2023-07-24T11:59:46;12.95;;;6.50;;
23222;SDS011;11780;13.904;100.620;2023-07-24T12:02:18;10.13;;;5.47;;
23222;SDS011;11780;13.904;100.620;2023-07-24T12:04:53;12.02;;;6.10;;
23222;SDS011;11780;13.904;100.620;2023-07-24T12:07:31;11.23;;;5.25;;
23222;SDS011;11780;13.904;100.620;2023-07-24T12:10:03;9.98;;;5.07;;
23222;SDS011;11780;13.904;100.620;2023-07-24T12:51:05;13.60;;;5.47;;
23222;SDS011;11780;13.904;100.620;2023-07-24T12:53:36;14.50;;;5.87;;
23222;SDS011;11780;13.904;100.620;2023-07-24T12:56:26;18.60;;;5.80;;
23222;SDS011;11780;13.904;100.620;2023-07-24T12:58:56;12.13;;;5.50;;
23222;SDS011;11780;13.904;100.620;2023-07-24T13:03:58;10.52;;;5.97;;
23222;SDS011;11780;13.904;100.620;2023-07-24T13:06:29;11.83;;;5.80;;
23222;SDS011;11780;13.904;100.620;2023-07-24T13:09:00;13.75;;;5.85;;
23222;SDS011;11780;13.904;100.620;2023-07-24T13:11:30;10.23;;;5.43;;
23222;SDS011;11780;13.904;100.620;2023-07-24T13:14:00;9.82;;;5.60;;
23222;SDS011;11780;13.904;100.620;2023-07-24T13:16:31;13.30;;;5.88;;
23222;SDS011;11780;13.904;100.620;2023-07-24T13:19:01;15.40;;;6.07;;
23222;SDS011;11780;13.904;100.620;2023-07-24T13:21:32;17.02;;;5.88;;
23222;SDS011;11780;13.904;100.620;2023-07-24T13:24:02;10.68;;;5.50;;
23222;SDS011;11780;13.904;100.620;2023-07-24T13:26:33;13.57;;;5.72;;
23222;SDS011;11780;13.904;100.620;2023-07-24T13:29:03;15.53;;;5.20;;
23222;SDS011;11780;13.904;100.620;2023-07-24T13:31:33;11.27;;;5.05;;
23222;SDS011;11780;13.904;100.620;2023-07-24T13:34:04;14.82;;;7.50;;
23222;SDS011;11780;13.904;100.620;2023-07-24T13:36:35;24.87;;;12.17;;
23222;SDS011;11780;13.904;100.620;2023-07-24T13:39:05;26.77;;;10.40;;
23222;SDS011;11780;13.904;100.620;2023-07-24T13:41:35;35.95;;;11.23;;
23222;SDS011;11780;13.904;100.620;2023-07-24T13:44:07;16.77;;;6.90;;
23222;SDS011;11780;13.904;100.620;2023-07-24T13:46:38;14.80;;;6.72;;
23222;SDS011;11780;13.904;100.620;2023-07-24T13:49:09;12.02;;;4.90;;
23222;SDS011;11780;13.904;100.620;2023-07-24T13:51:40;16.48;;;5.57;;
23222;SDS011;11780;13.904;100.620;2023-07-24T13:54:10;13.18;;;6.32;;
23222;SDS011;11780;13.904;100.620;2023-07-24T13:56:40;9.38;;;5.35;;
23222;SDS011;11780;13.904;100.620;2023-07-24T13:59:11;11.15;;;5.45;;
23222;SDS011;11780;13.904;100.620;2023-07-24T14:01:41;10.27;;;5.17;;
23222;SDS011;11780;13.904;100.620;2023-07-24T14:04:12;12.27;;;5.10;;
23222;SDS011;11780;13.904;100.620;2023-07-24T14:06:44;9.10;;;4.60;;
23222;SDS011;11780;13.904;100.620;2023-07-24T14:09:14;9.82;;;5.25;;
23222;SDS011;11780;13.904;100.620;2023-07-24T14:11:45;8.70;;;4.67;;
23222;SDS011;11780;13.904;100.620;2023-07-24T14:14:17;12.37;;;5.50;;
23222;SDS011;11780;13.904;100.620;2023-07-24T14:16:48;17.38;;;4.85;;
23222;SDS011;11780;13.904;100.620;2023-07-24T14:19:18;15.20;;;5.30;;
23222;SDS011;11780;13.904;100.620;2023-07-24T14:21:49;18.93;;;5.73;;
23222;SDS011;11780;13.904;100.620;2023-07-24T14:24:20;11.55;;;5.40;;
23222;SDS011;11780;13.904;100.620;2023-07-24T14:26:50;16.40;;;6.00;;
23222;SDS011;11780;13.904;100.620;2023-07-24T14:29:21;8.98;;;4.97;;
23222;SDS011;11780;13.904;100.620;2023-07-24T14:31:51;9.73;;;5.40;;
23222;SDS011;11780;13.904;100.620;2023-07-24T14:34:22;6.90;;;4.57;;
23222;SDS011;11780;13.904;100.620;2023-07-24T14:36:52;10.50;;;5.68;;
23222;SDS011;11780;13.904;100.620;2023-07-24T14:39:22;16.75;;;5.38;;
23222;SDS011;11780;13.904;100.620;2023-07-24T14:41:53;14.48;;;5.65;;
23222;SDS011;11780;13.904;100.620;2023-07-24T14:44:23;14.05;;;5.32;;
23222;SDS011;11780;13.904;100.620;2023-07-24T14:46:53;10.50;;;4.72;;
23222;SDS011;11780;13.904;100.620;2023-07-24T14:49:24;11.13;;;5.20;;
23222;SDS011;11780;13.904;100.620;2023-07-24T14:51:54;12.37;;;5.27;;
23222;SDS011;11780;13.904;100.620;2023-07-24T14:54:24;15.48;;;4.55;;
23222;SDS011;11780;13.904;100.620;2023-07-24T14:56:55;13.88;;;5.82;;
23222;SDS011;11780;13.904;100.620;2023-07-24T14:59:40;10.63;;;4.80;;
23222;SDS011;11780;13.904;100.620;2023-07-24T15:02:11;10.30;;;4.73;;
23222;SDS011;11780;13.904;100.620;2023-07-24T15:04:41;11.23;;;5.10;;
23222;SDS011;11780;13.904;100.620;2023-07-24T15:07:11;10.70;;;5.28;;
23222;SDS011;11780;13.904;100.620;2023-07-24T15:09:42;10.88;;;4.93;;
23222;SDS011;11780;13.904;100.620;2023-07-24T15:12:12;9.07;;;4.95;;
23222;SDS011;11780;13.904;100.620;2023-07-24T15:14:43;9.05;;;4.53;;
23222;SDS011;11780;13.904;100.620;2023-07-24T15:17:13;8.13;;;4.70;;
23222;SDS011;11780;13.904;100.620;2023-07-24T15:19:44;11.55;;;4.60;;
23222;SDS011;11780;13.904;100.620;2023-07-24T15:22:14;7.53;;;3.83;;
23222;SDS011;11780;13.904;100.620;2023-07-24T15:24:44;10.65;;;5.13;;
23222;SDS011;11780;13.904;100.620;2023-07-24T15:27:15;11.70;;;4.50;;
23222;SDS011;11780;13.904;100.620;2023-07-24T15:29:46;10.47;;;4.80;;
23222;SDS011;11780;13.904;100.620;2023-07-24T15:32:28;11.35;;;4.68;;
23222;SDS011;11780;13.904;100.620;2023-07-24T15:34:59;8.93;;;4.37;;
23222;SDS011;11780;13.904;100.620;2023-07-24T15:37:29;9.43;;;4.60;;
23222;SDS011;11780;13.904;100.620;2023-07-24T15:40:00;9.20;;;4.40;;
23222;SDS011;11780;13.904;100.620;2023-07-24T15:42:30;12.00;;;4.40;;
23222;SDS011;11780;13.904;100.620;2023-07-24T15:45:01;7.88;;;4.25;;
23222;SDS011;11780;13.904;100.620;2023-07-24T15:47:32;8.55;;;4.15;;
23222;SDS011;11780;13.904;100.620;2023-07-24T15:50:03;8.98;;;4.30;;